Time;durP1;ratioP1;P1;durP2;ratioP2;P2;SDS_P1;SDS_P2;PMS_P1;PMS_P2;Temp;Humidity;BMP_temperature;BMP_pressure;BME280_temperature;BME280_humidity;BME280_pressure;Samples;Min_cycle;Max_cycle;Signal;HPM_P1;HPM_P2
2023/10/11 00:02:08;;;;;;;23.27;14.80;;;16.30;99.90;;;;;;5049617;28;20128;-54
2023/10/11 00:04:35;;;;;;;19.67;13.40;;;16.30;99.90;;;;;;5051526;28;20713;-54
2023/10/11 00:07:01;;;;;;;18.58;13.82;;;16.00;99.90;;;;;;5051740;28;20507;-55
2023/10/11 00:09:35;;;;;;;21.30;13.68;;;15.80;99.90;;;;;;5051713;28;20037;-54
2023/10/11 00:12:04;;;;;;;20.98;13.15;;;15.70;99.90;;;;;;5049780;28;20037;-54
2023/10/11 00:14:39;;;;;;;23.17;14.65;;;15.80;99.90;;;;;;5051317;28;20057;-54
2023/10/11 00:17:06;;;;;;;18.60;12.45;;;15.90;99.90;;;;;;5051858;28;20040;-54
2023/10/11 00:19:33;;;;;;;18.77;12.90;;;16.20;99.90;;;;;;5051737;28;20048;-54
2023/10/11 00:22:00;;;;;;;15.70;12.45;;;16.40;99.90;;;;;;5049554;28;20045;-54
2023/10/11 00:24:28;;;;;;;19.45;13.18;;;16.50;99.90;;;;;;5051596;28;20021;-54
2023/10/11 00:26:59;;;;;;;19.20;11.88;;;16.50;99.90;;;;;;5051628;28;20090;-53
2023/10/11 00:29:26;;;;;;;16.53;11.57;;;16.50;99.90;;;;;;5052007;28;20044;-54
2023/10/11 00:31:52;;;;;;;14.23;11.18;;;16.30;99.90;;;;;;5051446;28;20952;-54
2023/10/11 00:34:18;;;;;;;15.10;9.75;;;16.10;99.90;;;;;;5051655;28;20036;-54
2023/10/11 00:36:45;;;;;;;12.82;10.13;;;16.00;99.90;;;;;;5065975;28;20037;-54
2023/10/11 00:39:17;;;;;;;14.75;10.50;;;15.70;99.90;;;;;;5049268;28;20052;-55
2023/10/11 00:41:48;;;;;;;16.30;11.40;;;15.50;99.90;;;;;;5032758;28;20502;-54
2023/10/11 00:44:20;;;;;;;16.48;10.40;;;15.40;99.90;;;;;;5051547;28;20044;-54
2023/10/11 00:47:08;;;;;;;18.90;11.52;;;15.50;99.90;;;;;;5051347;28;20032;-54
2023/10/11 00:49:39;;;;;;;13.75;11.55;;;15.50;99.90;;;;;;5050983;28;20037;-54
2023/10/11 00:52:09;;;;;;;16.08;11.40;;;15.40;99.90;;;;;;5053866;28;20025;-54
2023/10/11 00:54:43;;;;;;;15.73;10.85;;;15.40;99.90;;;;;;5055141;28;20443;-54
2023/10/11 00:57:12;;;;;;;15.07;11.10;;;15.40;99.90;;;;;;5055272;28;20038;-54
2023/10/11 00:59:39;;;;;;;14.60;10.52;;;15.30;99.90;;;;;;5055107;28;20036;-53
2023/10/11 01:02:07;;;;;;;12.25;9.93;;;15.20;99.90;;;;;;5055211;28;20357;-53
2023/10/11 01:04:37;;;;;;;13.95;9.98;;;;;;;;;;5055003;28;20044;-54
2023/10/11 01:07:03;;;;;;;10.93;9.48;;;;;;;;;;5054854;28;20037;-53
2023/10/11 01:09:29;;;;;;;13.30;8.93;;;;;;;;;;5055084;28;20059;-54
2023/10/11 01:11:55;;;;;;;10.88;8.52;;;;;;;;;;5054804;28;20482;-54
2023/10/11 01:14:24;;;;;;;12.20;8.95;;;;;;;;;;5054398;28;20496;-53
2023/10/11 01:16:53;;;;;;;13.55;9.05;;;;;;;;;;5054527;28;20033;-54
2023/10/11 01:19:19;;;;;;;10.45;7.70;;;;;;;;;;5054745;28;20021;-54
2023/10/11 01:21:52;;;;;;;10.70;8.15;;;;;;;;;;5054454;28;20029;-54
2023/10/11 01:24:18;;;;;;;;;;;;;;;;;;5055190;28;20090;-54
2023/10/11 01:26:44;;;;;;;;;;;;;;;;;;5055153;28;20567;-54
2023/10/11 01:29:09;;;;;;;;;;;14.50;99.90;;;;;;5054934;28;19905;-54
2023/10/11 01:31:38;;;;;;;;;;;14.30;99.90;;;;;;5069288;28;19904;-54
2023/10/11 01:34:04;;;;;;;;;;;14.10;99.90;;;;;;5054778;28;19909;-54
2023/10/11 01:36:30;;;;;;;;;;;14.10;99.90;;;;;;5054664;28;19909;-54
2023/10/11 01:39:00;;;;;;;;;;;14.00;99.90;;;;;;5054371;28;19947;-54
2023/10/11 01:41:29;;;;;;;;;;;14.00;99.90;;;;;;5054687;28;19984;-54
2023/10/11 01:43:55;;;;;;;;;;;14.00;99.90;;;;;;5054428;28;20042;-54
2023/10/11 01:46:25;;;;;;;15.25;12.30;;;;;;;;;;5053111;28;20377;-54
2023/10/11 01:48:52;;;;;;;46.55;23.77;;;14.10;99.90;;;;;;5053949;28;20473;-54
2023/10/11 01:51:25;;;;;;;184.27;160.65;;;14.40;99.90;;;;;;5068602;28;20038;-54
2023/10/11 01:53:55;;;;;;;11.32;9.48;;;14.30;99.90;;;;;;5054183;28;20476;-54
2023/10/11 01:56:24;;;;;;;10.30;7.80;;;14.50;99.90;;;;;;5053785;28;20464;-54
2023/10/11 01:58:50;;;;;;;251.77;227.40;;;14.60;99.90;;;;;;5053870;28;20028;-54
2023/10/11 02:01:23;;;;;;;11.20;9.38;;;14.50;99.90;;;;;;5051536;28;20033;-54
2023/10/11 02:03:58;;;;;;;10.40;8.60;;;14.40;99.90;;;;;;5053704;28;20186;-54
2023/10/11 02:06:25;;;;;;;13.60;8.38;;;14.50;99.90;;;;;;5053882;28;20466;-53
2023/10/11 02:08:51;;;;;;;14.10;9.32;;;14.60;99.90;;;;;;5052564;28;20392;-53
2023/10/11 02:11:23;;;;;;;9.45;8.27;;;14.50;99.90;;;;;;5053449;28;20028;-54
2023/10/11 02:13:49;;;;;;;;;;;14.70;99.90;;;;;;5054048;28;20438;-54
2023/10/11 02:16:16;;;;;;;9.05;8.18;;;14.90;99.90;;;;;;5053356;28;19921;-54
2023/10/11 02:18:42;;;;;;;40.50;12.10;;;14.70;99.90;;;;;;5053486;28;20024;-53
2023/10/11 02:21:08;;;;;;;42.60;20.33;;;14.60;99.90;;;;;;5067925;28;20116;-53
2023/10/11 02:23:40;;;;;;;18.45;8.02;;;14.70;99.90;;;;;;5053273;28;20116;-54
2023/10/11 02:26:14;;;;;;;;;;;14.40;99.90;;;;;;5054103;28;20043;-54
2023/10/11 02:28:40;;;;;;;10.20;7.07;;;14.50;99.90;;;;;;5053318;28;20319;-54
2023/10/11 02:31:06;;;;;;;18.30;7.85;;;14.20;99.90;;;;;;5053168;28;20040;-54
2023/10/11 02:33:33;;;;;;;8.88;7.75;;;14.40;99.90;;;;;;5067689;28;20469;-53
2023/10/11 02:36:17;;;;;;;7.63;6.80;;;14.30;99.90;;;;;;5053067;28;20047;-54
2023/10/11 02:38:54;;;;;;;8.70;6.72;;;14.60;99.90;;;;;;5053223;28;20400;-54
2023/10/11 02:41:26;;;;;;;9.45;7.88;;;14.40;99.90;;;;;;5052863;28;20037;-53
2023/10/11 02:43:53;;;;;;;8.50;7.07;;;14.30;99.90;;;;;;5053049;28;20603;-53
2023/10/11 02:46:23;;;;;;;12.15;8.07;;;14.50;99.90;;;;;;5052808;28;20667;-54
2023/10/11 02:49:18;;;;;;;7.80;7.00;;;14.30;99.90;;;;;;5053137;28;20028;-53
2023/10/11 02:51:55;;;;;;;8.80;6.88;;;14.10;99.90;;;;;;5052785;28;20365;-54
2023/10/11 02:54:24;;;;;;;10.05;7.20;;;14.10;99.90;;;;;;5053173;28;20361;-53
2023/10/11 02:56:52;;;;;;;23.83;7.75;;;;;;;;;;5052761;28;20072;-53
2023/10/11 02:59:19;;;;;;;15.82;7.43;;;13.60;99.90;;;;;;5052723;28;20099;-53
2023/10/11 03:02:00;;;;;;;26.15;7.07;;;13.50;99.90;;;;;;5050112;28;20037;-53
2023/10/11 03:04:39;;;;;;;8.05;7.25;;;13.30;99.90;;;;;;5016724;28;20636;-54
2023/10/11 03:07:05;;;;;;;90.00;79.00;;;13.40;99.90;;;;;;5050180;28;20044;-54
2023/10/11 03:09:33;;;;;;;9.15;8.15;;;13.40;99.90;;;;;;5049940;28;20052;-54
2023/10/11 03:12:06;;;;;;;9.88;8.15;;;13.60;99.90;;;;;;5049973;28;20041;-53
2023/10/11 03:14:41;;;;;;;12.18;8.27;;;13.70;99.90;;;;;;5015866;28;20055;-53
2023/10/11 03:17:13;;;;;;;11.45;8.52;;;13.60;99.90;;;;;;5049990;28;20120;-54
2023/10/11 03:19:42;;;;;;;10.52;8.95;;;13.60;99.90;;;;;;5049954;28;20040;-54
2023/10/11 03:22:21;;;;;;;11.52;7.65;;;13.60;99.90;;;;;;5049640;28;20102;-53
2023/10/11 03:24:59;;;;;;;9.60;7.53;;;13.80;99.90;;;;;;5049794;28;20124;-54
2023/10/11 03:27:27;;;;;;;11.52;9.13;;;13.90;99.90;;;;;;5016311;28;20056;-53
2023/10/11 03:29:53;;;;;;;11.88;8.48;;;13.70;99.90;;;;;;5049661;28;20032;-53
2023/10/11 03:32:19;;;;;;;14.32;9.00;;;13.80;99.90;;;;;;5050439;28;20044;-54
2023/10/11 03:34:46;;;;;;;9.77;8.00;;;13.80;99.90;;;;;;5049998;28;20120;-53
2023/10/11 03:37:18;;;;;;;10.70;7.38;;;13.80;99.90;;;;;;5052115;28;20120;-54
2023/10/11 03:39:44;;;;;;;10.95;8.18;;;13.60;99.90;;;;;;5052122;28;20029;-53
2023/10/11 03:44:40;;;;;;;10.32;7.95;;;13.20;99.90;;;;;;5051714;28;20106;-53
2023/10/11 03:47:08;;;;;;;9.88;8.52;;;13.10;99.90;;;;;;5051987;28;20033;-53
2023/10/11 03:49:49;;;;;;;10.65;8.48;;;13.40;99.90;;;;;;5052068;28;20491;-54
2023/10/11 03:52:30;;;;;;;9.55;8.00;;;13.50;99.90;;;;;;5051794;28;20040;-53
2023/10/11 03:55:05;;;;;;;9.55;7.90;;;13.70;99.90;;;;;;5049909;28;20067;-53
2023/10/11 03:57:36;;;;;;;12.23;8.45;;;13.80;99.90;;;;;;5051642;28;20091;-53
2023/10/11 04:00:48;;;;;;;12.38;8.32;;;14.00;99.90;;;;;;5051799;28;20025;-54
2023/10/11 04:02:56;;;;;;;11.18;8.30;;;13.90;99.90;;;;;;5051232;28;20045;-54
2023/10/11 04:05:23;;;;;;;11.90;8.85;;;14.00;99.90;;;;;;5049002;28;20504;-53
2023/10/11 04:07:48;;;;;;;12.45;8.98;;;14.00;99.90;;;;;;5015995;28;20048;-53
2023/10/11 04:10:32;;;;;;;13.48;9.10;;;13.90;99.90;;;;;;5049096;28;20041;-53
2023/10/11 04:12:57;;;;;;;11.45;9.45;;;13.90;99.90;;;;;;5034987;28;20304;-53
2023/10/11 04:15:30;;;;;;;13.18;9.35;;;13.90;99.90;;;;;;5048151;28;20048;-55
2023/10/11 04:17:56;;;;;;;13.57;9.57;;;13.60;99.90;;;;;;5018075;28;20115;-53
2023/10/11 04:20:31;;;;;;;19.45;10.98;;;13.50;99.90;;;;;;4982753;28;20132;-53
2023/10/11 04:23:10;;;;;;;16.15;10.70;;;13.40;99.90;;;;;;5049281;28;20037;-53
2023/10/11 04:25:37;;;;;;;13.10;10.63;;;13.20;99.90;;;;;;5034154;28;20407;-54
2023/10/11 04:28:05;;;;;;;14.73;10.77;;;13.20;99.90;;;;;;5053220;28;20037;-53
2023/10/11 04:30:44;;;;;;;16.58;9.88;;;13.40;99.90;;;;;;5036168;28;20048;-53
2023/10/11 04:33:22;;;;;;;14.98;10.57;;;13.50;99.90;;;;;;5053007;28;20029;-53
2023/10/11 04:35:57;;;;;;;19.48;11.48;;;13.60;99.90;;;;;;5019821;28;20506;-53
2023/10/11 04:38:24;;;;;;;16.25;10.35;;;13.60;99.90;;;;;;5055161;28;20036;-54
2023/10/11 04:40:51;;;;;;;18.17;9.75;;;13.40;99.90;;;;;;5055261;28;20029;-53
2023/10/11 04:43:23;;;;;;;17.50;10.90;;;13.00;99.90;;;;;;5053828;28;20045;-53
2023/10/11 04:46:00;;;;;;;26.55;10.50;;;12.90;99.90;;;;;;5055007;28;20668;-53
2023/10/11 04:48:33;;;;;;;17.23;10.70;;;12.90;99.90;;;;;;5054835;28;20090;-53
2023/10/11 05:04:30;;;;;;;14.60;12.27;;;13.40;99.90;;;;;;5054179;28;20120;-53
2023/10/11 05:06:56;;;;;;;13.70;10.40;;;13.70;99.90;;;;;;5052509;28;20087;-53
2023/10/11 05:09:52;;;;;;;14.43;10.88;;;13.80;99.90;;;;;;5053159;28;20424;-53
2023/10/11 05:12:12;;;;;;;13.70;11.32;;;14.00;99.90;;;;;;5051248;28;20036;-54
2023/10/11 05:19:40;;;;;;;12.07;10.77;;;14.10;99.90;;;;;;5053878;28;20025;-54
2023/10/11 05:22:09;;;;;;;12.60;10.57;;;14.10;99.90;;;;;;5054782;28;20031;-53
2023/10/11 05:27:47;;;;;;;13.07;9.88;;;14.40;99.90;;;;;;5032163;28;20060;-53
2023/10/11 05:30:26;;;;;;;13.35;10.75;;;14.40;99.90;;;;;;5032050;28;20030;-53
2023/10/11 05:52:09;;;;;;;25.05;12.85;;;13.80;99.90;;;;;;5013786;28;20095;-54
2023/10/11 05:54:35;;;;;;;18.05;12.40;;;14.30;99.90;;;;;;5020049;28;20436;-53
2023/10/11 05:57:04;;;;;;;20.13;13.52;;;14.60;99.90;;;;;;5015057;28;20076;-54
2023/10/11 05:59:37;;;;;;;14.70;11.25;;;;;;;;;;5027771;28;20456;-54
2023/10/11 06:02:18;;;;;;;13.48;10.07;;;15.60;99.90;;;;;;5030563;28;20044;-54
2023/10/11 06:04:45;;;;;;;14.18;9.85;;;;;;;;;;5036496;28;20049;-54
2023/10/11 06:07:13;;;;;;;10.75;9.75;;;16.30;99.90;;;;;;5031276;28;20029;-53
2023/10/11 06:09:46;;;;;;;9.73;8.82;;;16.40;99.90;;;;;;5032859;28;20033;-53
2023/10/11 06:12:23;;;;;;;9.80;8.80;;;16.70;99.90;;;;;;5030629;28;20076;-55
2023/10/11 06:14:55;;;;;;;11.32;9.07;;;16.90;99.90;;;;;;5031309;28;20092;-53
2023/10/11 06:17:32;;;;;;;11.57;9.85;;;16.90;99.90;;;;;;5028728;28;20035;-54
2023/10/11 06:20:17;;;;;;;11.35;10.23;;;17.30;99.90;;;;;;5027877;28;20091;-54
2023/10/11 06:22:44;;;;;;;16.83;11.98;;;18.20;99.90;;;;;;5032261;28;20620;-54
2023/10/11 06:25:13;;;;;;;11.32;10.10;;;19.10;99.90;;;;;;5030964;28;20045;-54
2023/10/11 06:30:21;;;;;;;42.42;34.47;;;;;;;;;;5038636;28;20375;-53
2023/10/11 06:32:49;;;;;;;11.93;10.20;;;22.10;99.90;;;;;;5050857;28;20472;-54
2023/10/11 06:35:23;;;;;;;13.45;9.02;;;22.60;99.90;;;;;;5050696;28;20036;-54
2023/10/11 06:37:54;;;;;;;10.88;9.38;;;;;;;;;;5050070;28;20040;-54
2023/10/11 06:43:08;;;;;;;15.77;9.82;;;;;;;;;;5047530;28;20040;-54
2023/10/11 06:45:35;;;;;;;13.68;9.27;;;;;;;;;;4983604;28;20076;-53
2023/10/11 06:48:08;;;;;;;12.80;9.30;;;;;;;;;;5049486;28;20024;-53
2023/10/11 06:50:36;;;;;;;12.23;9.40;;;;;;;;;;5050350;28;20028;-54
2023/10/11 06:53:06;;;;;;;11.27;9.48;;;22.60;99.90;;;;;;5052538;28;20392;-54
2023/10/11 06:55:33;;;;;;;10.40;9.30;;;;;;;;;;5051615;28;20029;-53
2023/10/11 06:58:08;;;;;;;11.02;9.93;;;25.20;99.90;;;;;;5052625;28;20033;-54
2023/10/11 07:00:37;;;;;;;12.48;9.95;;;;;;;;;;5030210;28;20099;-53
2023/10/11 07:03:07;;;;;;;12.05;9.25;;;;;;;;;;5028903;28;20087;-54
2023/10/11 07:05:40;;;;;;;10.73;8.65;;;;;;;;;;5030071;28;20053;-53
2023/10/11 07:08:08;;;;;;;10.93;9.02;;;29.10;99.90;;;;;;5030191;28;20116;-54
2023/10/11 07:10:34;;;;;;;9.73;8.32;;;29.20;99.90;;;;;;5030166;28;20075;-54
2023/10/11 07:13:12;;;;;;;11.80;9.10;;;29.60;99.90;;;;;;5013418;28;20388;-54
2023/10/11 07:15:47;;;;;;;13.20;8.85;;;;;;;;;;5010333;28;20084;-54
2023/10/11 07:18:27;;;;;;;10.00;8.07;;;;;;;;;;5009902;28;20036;-54
2023/10/11 07:21:07;;;;;;;10.80;9.20;;;;;;;;;;5010149;28;20042;-54
2023/10/11 07:23:45;;;;;;;11.60;9.25;;;;;;;;;;5017081;28;20037;-54
2023/10/11 07:28:58;;;;;;;12.60;9.55;;;;;;;;;;5019237;28;20060;-54
2023/10/11 07:31:31;;;;;;;12.93;10.40;;;;;;;;;;5033836;28;20400;-54
2023/10/11 07:34:05;;;;;;;13.15;9.73;;;;;;;;;;5052008;28;20119;-54
2023/10/11 07:49:14;;;;;;;14.05;11.10;;;;;;;;;;5109407;27;20384;-55
2023/10/11 07:51:41;;;;;;;15.00;11.00;;;;;;;;;;5109923;28;20035;-54
2023/10/11 07:54:11;;;;;;;11.45;9.45;;;;;;;;;;5109413;28;20051;-55
2023/10/11 07:56:37;;;;;;;11.93;9.65;;;33.50;99.70;;;;;;5109510;28;20032;-54
2023/10/11 07:59:12;;;;;;;12.07;9.40;;;33.60;99.90;;;;;;5100369;28;20509;-55
2023/10/11 08:01:44;;;;;;;13.57;9.65;;;33.80;98.90;;;;;;5068723;28;20070;-55
2023/10/11 08:04:29;;;;;;;12.02;9.10;;;34.10;98.20;;;;;;5076033;28;20040;-55
2023/10/11 08:06:59;;;;;;;14.50;9.80;;;33.70;98.10;;;;;;5088908;28;20020;-55
2023/10/11 08:09:45;;;;;;;12.30;9.88;;;33.40;98.20;;;;;;5092676;28;20054;-55
2023/10/11 08:12:15;;;;;;;12.52;9.40;;;33.50;97.80;;;;;;5108974;28;20038;-55
2023/10/11 08:14:45;;;;;;;11.63;9.30;;;;;;;;;;5107648;28;20433;-55
2023/10/11 08:17:14;;;;;;;12.48;9.75;;;;;;;;;;5108954;28;20032;-55
2023/10/11 08:19:44;;;;;;;10.38;8.68;;;33.90;97.10;;;;;;5108698;28;20020;-55
2023/10/11 08:22:16;;;;;;;11.77;8.93;;;33.90;99.90;;;;;;5109174;28;20036;-55
2023/10/11 08:24:50;;;;;;;9.30;8.35;;;32.30;96.80;;;;;;5101746;28;20028;-55
2023/10/11 08:27:23;;;;;;;10.00;8.18;;;33.40;99.40;;;;;;5091509;28;20029;-55
2023/10/11 08:29:54;;;;;;;9.05;8.13;;;33.10;96.40;;;;;;5097073;28;20029;-55
2023/10/11 08:32:25;;;;;;;9.68;6.75;;;33.40;96.40;;;;;;5090370;28;20443;-54
2023/10/11 08:34:51;;;;;;;9.95;7.60;;;33.20;96.80;;;;;;5094681;28;20036;-52
2023/10/11 08:37:17;;;;;;;11.00;7.88;;;32.80;95.70;;;;;;5089454;28;20038;-54
2023/10/11 08:39:46;;;;;;;10.55;7.72;;;;;;;;;;5097055;28;20021;-54
2023/10/11 08:42:14;;;;;;;9.95;7.25;;;31.70;98.90;;;;;;5098015;28;20030;-55
2023/10/11 08:44:45;;;;;;;9.38;7.78;;;;;;;;;;5085473;28;20056;-57
2023/10/11 08:47:13;;;;;;;9.73;7.70;;;;;;;;;;5088089;28;20044;-54
2023/10/11 08:49:48;;;;;;;9.60;8.05;;;;;;;;;;5079303;28;20028;-55
2023/10/11 08:52:17;;;;;;;11.52;7.53;;;;;;;;;;5074587;28;20395;-53
2023/10/11 08:54:44;;;;;;;12.40;7.18;;;;;;;;;;5074640;28;20025;-55
2023/10/11 08:57:13;;;;;;;12.25;8.85;;;30.00;95.50;;;;;;5076883;28;20074;-54
2023/10/11 08:59:49;;;;;;;13.15;9.57;;;;;;;;;;5094553;28;20036;-57
2023/10/11 09:02:17;;;;;;;12.95;9.90;;;;;;;;;;5094028;28;20478;-52
2023/10/11 09:04:56;;;;;;;11.35;9.27;;;;;;;;;;5094635;28;20040;-53
2023/10/11 09:07:39;;;;;;;11.52;8.85;;;;;;;;;;5094275;28;20112;-54
2023/10/11 09:10:27;;;;;;;14.57;10.68;;;;;;;;;;5094530;28;20035;-54
2023/10/11 09:12:58;;;;;;;11.85;10.27;;;;;;;;;;5076258;28;20035;-53
2023/10/11 09:15:40;;;;;;;14.13;10.43;;;29.40;99.90;;;;;;5094251;28;20372;-54
2023/10/11 09:18:16;;;;;;;12.63;9.70;;;;;;;;;;5094156;28;20039;-54
2023/10/11 09:20:55;;;;;;;12.13;9.23;;;;;;;;;;5094365;28;20054;-53
2023/10/11 09:23:33;;;;;;;11.68;8.65;;;;;;;;;;5088193;28;20237;-54
2023/10/11 09:25:59;;;;;;;14.32;9.07;;;31.30;98.20;;;;;;5083318;28;20028;-55
2023/10/11 09:28:33;;;;;;;12.13;8.60;;;30.70;94.80;;;;;;5084143;28;20025;-54
2023/10/11 09:31:13;;;;;;;14.80;9.90;;;30.80;94.80;;;;;;5032761;28;20041;-54
2023/10/11 09:33:40;;;;;;;10.65;8.50;;;;;;;;;;5053946;28;20029;-53
2023/10/11 09:36:07;;;;;;;14.02;9.05;;;;;;;;;;5051479;28;20048;-53
2023/10/11 09:38:39;;;;;;;12.75;7.95;;;;;;;;;;5068056;28;20060;-53
2023/10/11 09:41:09;;;;;;;10.68;8.75;;;;;;;;;;5051406;28;20068;-53
2023/10/11 09:43:43;;;;;;;9.38;8.40;;;;;;;;;;5053625;28;20021;-53
2023/10/11 09:46:13;;;;;;;9.88;8.60;;;;;;;;;;5053754;28;20056;-54
2023/10/11 09:48:42;;;;;;;7.03;5.30;;;29.30;99.10;;;;;;5053111;28;20502;-53
2023/10/11 09:51:14;;;;;;;9.85;7.53;;;;;;;;;;5053541;28;20032;-54
2023/10/11 09:53:49;;;;;;;10.05;7.25;;;;;;;;;;5053678;28;20029;-53
2023/10/11 09:56:30;;;;;;;8.63;6.80;;;;;;;;;;5053280;28;20064;-54
2023/10/11 09:59:05;;;;;;;11.82;7.47;;;;;;;;;;5053039;28;20037;-54
2023/10/11 10:01:43;;;;;;;10.68;7.28;;;;;;;;;;5052423;28;20021;-53
2023/10/11 10:04:12;;;;;;;9.90;7.45;;;;;;;;;;5053090;28;20028;-54
2023/10/11 10:06:38;;;;;;;10.93;8.13;;;;;;;;;;5053161;28;20040;-54
2023/10/11 10:09:18;;;;;;;10.57;7.22;;;;;;;;;;5069778;28;20115;-53
2023/10/11 10:12:11;;;;;;;9.18;7.40;;;;;;;;;;5085508;28;20040;-54
2023/10/11 10:14:39;;;;;;;8.35;6.30;;;;;;;;;;5093053;28;20020;-54
2023/10/11 10:17:11;;;;;;;7.90;6.57;;;;;;;;;;5092988;28;20126;-54
2023/10/11 10:19:43;;;;;;;10.63;7.35;;;;;;;;;;5093594;28;20447;-53
2023/10/11 10:22:15;;;;;;;8.35;7.07;;;;;;;;;;5092971;28;20107;-54
2023/10/11 10:24:43;;;;;;;9.50;6.57;;;31.90;93.60;;;;;;5092980;28;20032;-54
2023/10/11 10:27:33;;;;;;;8.95;5.95;;;;;;;;;;5093191;28;20085;-54
2023/10/11 10:30:00;;;;;;;7.13;5.82;;;;;;;;;;5083758;28;20036;-54
2023/10/11 10:32:29;;;;;;;7.90;6.35;;;32.30;97.80;;;;;;5092839;28;20028;-54
2023/10/11 10:35:16;;;;;;;10.05;7.07;;;;;;;;;;5092911;28;20030;-54
2023/10/11 10:37:48;;;;;;;8.13;6.70;;;;;;;;;;5092948;28;20032;-54
2023/10/11 10:40:24;;;;;;;7.70;6.45;;;;;;;;;;5092559;28;20024;-54
2023/10/11 10:43:08;;;;;;;7.80;6.05;;;;;;;;;;5075714;28;20032;-54
2023/10/11 10:45:35;;;;;;;8.20;6.07;;;;;;;;;;5071030;28;20364;-54
2023/10/11 10:48:20;;;;;;;7.65;6.07;;;;;;;;;;5071921;28;20056;-54
2023/10/11 10:50:46;;;;;;;6.03;5.35;;;32.70;99.90;;;;;;5072248;28;20024;-54
2023/10/11 10:53:14;;;;;;;8.48;6.20;;;;;;;;;;5072154;28;20066;-54
2023/10/11 10:55:42;;;;;;;11.02;6.15;;;;;;;;;;5053865;28;20040;-54
2023/10/11 10:58:15;;;;;;;8.80;6.18;;;;;;;;;;5072108;28;20041;-54
2023/10/11 11:00:43;;;;;;;9.52;6.97;;;;;;;;;;5072429;28;20090;-54
2023/10/11 11:03:25;;;;;;;9.98;7.65;;;;;;;;;;5072149;28;20115;-54
2023/10/11 11:05:57;;;;;;;8.27;5.97;;;31.60;99.90;;;;;;5071950;28;20016;-54
2023/10/11 11:08:27;;;;;;;6.93;6.10;;;30.90;92.10;;;;;;5067796;28;20036;-53
2023/10/11 11:11:19;;;;;;;9.45;7.32;;;30.60;92.20;;;;;;5078872;28;20052;-54
2023/10/11 11:13:47;;;;;;;10.25;6.65;;;;;;;;;;5045102;28;20072;-54
2023/10/11 11:16:26;;;;;;;10.35;9.25;;;30.50;95.10;;;;;;5038199;28;20090;-54
2023/10/11 11:18:52;;;;;;;7.68;5.82;;;30.80;94.10;;;;;;5032844;28;20053;-52
2023/10/11 11:21:25;;;;;;;4.75;4.30;;;31.90;91.70;;;;;;5014138;28;20634;-54
2023/10/11 11:23:52;;;;;;;6.68;5.07;;;30.90;90.80;;;;;;5029358;28;20228;-53
2023/10/11 11:26:31;;;;;;;5.60;4.32;;;31.00;90.90;;;;;;5012563;28;20034;-54
2023/10/11 11:29:11;;;;;;;8.50;4.78;;;;;;;;;;5029421;28;20033;-54
2023/10/11 11:31:53;;;;;;;5.85;5.20;;;;;;;;;;5029352;28;20116;-54
2023/10/11 11:34:28;;;;;;;;;;;;;;;;;;5048740;28;20087;-53
2023/10/11 11:36:58;;;;;;;64.15;57.45;;;31.10;90.80;;;;;;5049051;28;20008;-54
2023/10/11 11:39:27;;;;;;;12.80;8.20;;;31.00;91.30;;;;;;5048901;28;20029;-54
2023/10/11 11:41:57;;;;;;;10.73;5.70;;;;;;;;;;5049137;28;20032;-54
2023/10/11 11:44:27;;;;;;;13.80;9.75;;;30.40;99.90;;;;;;5049044;28;20041;-53
2023/10/11 11:46:55;;;;;;;15.93;14.23;;;30.90;99.90;;;;;;5048871;28;20033;-54
2023/10/11 11:49:22;;;;;;;13.02;5.65;;;;;;;;;;5032195;28;20249;-54
2023/10/11 11:51:51;;;;;;;20.10;12.20;;;;;;;;;;5051349;28;20128;-53
2023/10/11 11:54:19;;;;;;;18.33;10.35;;;;;;;;;;5051816;28;20380;-54
2023/10/11 11:56:45;;;;;;;9.38;6.93;;;;;;;;;;5051433;28;20052;-53
2023/10/11 11:59:17;;;;;;;9.60;7.25;;;30.30;99.90;;;;;;5061722;28;20487;-54
2023/10/11 12:01:45;;;;;;;10.90;9.48;;;30.50;95.90;;;;;;5082710;28;20032;-53
2023/10/11 12:04:12;;;;;;;10.00;8.07;;;30.50;96.10;;;;;;5051986;28;20410;-52
2023/10/11 12:06:39;;;;;;;10.57;6.63;;;;;;;;;;5071814;28;20032;-57
2023/10/11 12:09:05;;;;;;;12.23;7.50;;;29.80;91.20;;;;;;5071451;28;20024;-52
2023/10/11 12:11:31;;;;;;;9.95;5.65;;;;;;;;;;5083191;28;20087;-52
2023/10/11 12:13:58;;;;;;;7.50;5.47;;;;;;;;;;5077761;28;20036;-54
2023/10/11 12:16:24;;;;;;;9.02;5.65;;;29.50;91.40;;;;;;5071130;28;20021;-55
2023/10/11 12:18:58;;;;;;;6.30;4.80;;;;;;;;;;5083667;28;20379;-55
2023/10/11 12:21:25;;;;;;;7.25;4.65;;;;;;;;;;5091411;28;20093;-55
2023/10/11 12:23:51;;;;;;;7.03;4.43;;;;;;;;;;5092483;28;20089;-55
2023/10/11 12:26:17;;;;;;;6.88;4.93;;;;;;;;;;5095278;28;20110;-56
2023/10/11 12:28:44;;;;;;;8.55;5.53;;;;;;;;;;5095142;28;20082;-56
2023/10/11 12:31:11;;;;;;;10.02;5.78;;;;;;;;;;5095466;28;20059;-56
2023/10/11 12:33:37;;;;;;;4.97;3.72;;;;;;;;;;5095331;28;20028;-56
2023/10/11 12:36:06;;;;;;;7.35;4.40;;;;;;;;;;5095125;28;20047;-57
2023/10/11 12:38:37;;;;;;;4.93;3.88;;;;;;;;;;5094927;28;20122;-54
2023/10/11 12:41:04;;;;;;;;;;;;;;;;;;5095382;28;20106;-53
2023/10/11 12:43:30;;;;;;;6.43;4.72;;;29.30;93.30;;;;;;5095277;28;19996;-56
2023/10/11 12:45:56;;;;;;;9.65;5.43;;;29.20;91.60;;;;;;5094935;28;20024;-55
2023/10/11 12:48:21;;;;;;;6.32;4.80;;;29.30;91.50;;;;;;5094759;28;20105;-56
2023/10/11 12:50:48;;;;;;;8.90;4.80;;;29.20;91.40;;;;;;5094775;28;20119;-55
2023/10/11 12:53:15;;;;;;;6.32;4.35;;;29.10;91.30;;;;;;5095015;28;20036;-54
2023/10/11 12:55:42;;;;;;;6.28;4.53;;;;;;;;;;5094701;28;20036;-57
2023/10/11 12:58:12;;;;;;;6.68;5.07;;;28.30;91.20;;;;;;5094562;28;20032;-52
2023/10/11 13:00:59;;;;;;;7.72;4.93;;;28.80;98.40;;;;;;5094714;28;20028;-56
2023/10/11 13:03:26;;;;;;;7.05;5.13;;;28.50;98.40;;;;;;5094947;28;20085;-55
2023/10/11 13:05:53;;;;;;;5.40;4.65;;;28.70;98.60;;;;;;5094822;28;20032;-57
2023/10/11 13:08:24;;;;;;;7.50;5.18;;;28.60;98.30;;;;;;5094669;28;20035;-55
2023/10/11 13:10:51;;;;;;;7.70;4.90;;;28.70;96.80;;;;;;5094412;28;20031;-56
2023/10/11 13:13:18;;;;;;;6.53;5.22;;;28.90;97.00;;;;;;5094101;28;20535;-55
2023/10/11 13:16:00;;;;;;;8.80;5.50;;;28.90;96.70;;;;;;5075187;28;20046;-52
2023/10/11 13:18:28;;;;;;;6.18;4.90;;;29.00;96.70;;;;;;5094315;28;20467;-57
2023/10/11 13:20:55;;;;;;;7.10;4.90;;;28.70;96.60;;;;;;5094256;28;20031;-55
2023/10/11 13:23:32;;;;;;;6.40;5.13;;;28.80;96.40;;;;;;5062736;28;20037;-57
2023/10/11 13:26:09;;;;;;;6.00;5.03;;;29.00;96.30;;;;;;5055842;28;20040;-56
2023/10/11 13:28:36;;;;;;;11.82;6.15;;;28.80;99.70;;;;;;5073863;28;20020;-56
2023/10/11 13:31:04;;;;;;;9.43;6.00;;;28.70;99.60;;;;;;5081578;28;20043;-55
2023/10/11 13:33:33;;;;;;;6.40;5.15;;;28.90;91.90;;;;;;5082591;28;20035;-55
2023/10/11 13:35:59;;;;;;;5.88;5.28;;;29.00;92.00;;;;;;5084418;28;20031;-55
2023/10/11 13:38:25;;;;;;;6.10;4.65;;;28.80;91.90;;;;;;5090678;28;20044;-57
2023/10/11 13:40:52;;;;;;;6.95;4.90;;;29.50;93.50;;;;;;5074867;28;20094;-53
2023/10/11 13:43:22;;;;;;;6.45;5.32;;;29.20;90.80;;;;;;5094107;28;20033;-53
2023/10/11 13:45:56;;;;;;;8.02;4.93;;;29.10;90.70;;;;;;5093879;28;20437;-54
2023/10/11 13:48:26;;;;;;;8.15;5.55;;;28.60;90.80;;;;;;5083719;28;20052;-57
2023/10/11 13:50:53;;;;;;;12.90;7.18;;;28.50;90.90;;;;;;5090843;28;20657;-57
2023/10/11 13:53:20;;;;;;;7.90;5.82;;;28.60;90.90;;;;;;5086691;28;20026;-52
2023/10/11 13:55:51;;;;;;;8.88;5.85;;;28.50;91.60;;;;;;5087545;28;20495;-54
2023/10/11 13:58:17;;;;;;;11.25;6.00;;;29.00;91.20;;;;;;5059548;28;20051;-55
2023/10/11 14:05:46;;;;;;;7.13;5.97;;;;;;;;;;5070140;28;20032;-55
2023/10/11 14:08:24;;;;;;;;;;;27.90;99.90;;;;;;5068303;28;20033;-54
2023/10/11 14:10:54;;;;;;;7.45;5.72;;;27.90;94.30;;;;;;5069473;28;20414;-53
2023/10/11 14:13:26;;;;;;;6.38;5.72;;;28.10;93.20;;;;;;5065187;28;20081;-56
2023/10/11 14:15:52;;;;;;;;;;;28.40;93.10;;;;;;5063393;28;20051;-53
2023/10/11 14:18:19;;;;;;;8.07;6.45;;;28.60;92.40;;;;;;5059888;28;19916;-54
2023/10/11 14:20:55;;;;;;;12.60;6.95;;;28.70;96.70;;;;;;5065326;28;20043;-54
2023/10/11 14:23:27;;;;;;;8.88;6.80;;;28.60;96.80;;;;;;5063843;28;20040;-55
2023/10/11 14:25:57;;;;;;;9.73;7.55;;;28.40;97.00;;;;;;5058490;28;20098;-54
2023/10/11 14:28:25;;;;;;;8.23;6.75;;;28.40;97.30;;;;;;5063738;28;20024;-55
2023/10/11 14:30:51;;;;;;;9.05;6.60;;;28.20;98.00;;;;;;5046631;28;20036;-53
2023/10/11 14:33:20;;;;;;;15.77;6.90;;;27.90;99.80;;;;;;5082480;28;20040;-53
2023/10/11 14:35:48;;;;;;;7.63;6.15;;;27.80;99.00;;;;;;5076704;28;20055;-54
2023/10/11 14:38:14;;;;;;;10.80;7.30;;;27.80;96.60;;;;;;5081757;28;20036;-54
2023/10/11 14:40:43;;;;;;;9.32;6.60;;;27.80;99.30;;;;;;5086062;28;20092;-54
2023/10/11 14:43:12;;;;;;;7.25;6.32;;;;;;;;;;5079659;28;20185;-56
2023/10/11 14:45:39;;;;;;;7.72;6.15;;;;;;;;;;5084036;28;20056;-53
2023/10/11 14:48:09;;;;;;;8.35;5.97;;;;;;;;;;5079084;28;20055;-54